createdAt,value
2019-04-07T00:00:37.110Z,37.60
2019-04-07T00:03:04.633Z,37.67
2019-04-07T00:05:32.222Z,36.67
2019-04-07T00:07:59.160Z,38.30
2019-04-07T00:10:25.980Z,38.60
2019-04-07T00:12:52.991Z,39.27
2019-04-07T00:15:20.836Z,36.37
2019-04-07T00:17:47.735Z,36.43
2019-04-07T00:20:15.983Z,39.03
2019-04-07T00:22:44.204Z,37.80
2019-04-07T00:25:11.080Z,38.90
2019-04-07T00:27:37.907Z,36.00
2019-04-07T00:30:05.229Z,37.30
2019-04-07T00:32:31.832Z,38.83
2019-04-07T00:34:58.645Z,39.13
2019-04-07T00:37:25.162Z,38.30
2019-04-07T00:39:53.247Z,39.23
2019-04-07T00:42:19.861Z,43.77
2019-04-07T00:44:46.644Z,35.77
2019-04-07T00:47:13.224Z,36.70
2019-04-07T00:49:41.496Z,40.13
2019-04-07T00:52:10.056Z,38.03
2019-04-07T00:54:37.033Z,37.67
2019-04-07T00:57:03.589Z,39.03
2019-04-07T00:59:30.816Z,37.60
2019-04-07T01:01:57.958Z,36.23
2019-04-07T01:04:25.315Z,38.17
2019-04-07T01:06:53.707Z,38.60
2019-04-07T01:09:20.270Z,38.77
2019-04-07T01:11:47.460Z,36.00
2019-04-07T01:14:14.058Z,36.57
2019-04-07T01:16:40.767Z,38.13
2019-04-07T01:19:07.619Z,37.50
2019-04-07T01:21:35.804Z,38.73
2019-04-07T01:24:02.511Z,37.00
2019-04-07T01:26:29.246Z,38.97
2019-04-07T01:28:55.798Z,39.87
2019-04-07T01:31:22.553Z,38.50
2019-04-07T01:33:48.987Z,38.80
2019-04-07T01:36:17.190Z,39.13
2019-04-07T01:38:44.482Z,40.10
2019-04-07T01:41:13.919Z,40.23
2019-04-07T01:43:57.568Z,37.47
2019-04-07T01:46:44.532Z,40.50
2019-04-07T01:49:16.368Z,39.83
2019-04-07T01:51:47.665Z,40.27
2019-04-07T01:54:31.824Z,41.13
2019-04-07T01:57:16.878Z,40.47
2019-04-07T01:59:48.417Z,41.10
2019-04-07T02:02:25.546Z,40.80
2019-04-07T02:05:10.867Z,40.83
2019-04-07T02:07:42.488Z,37.63
2019-04-07T02:10:12.052Z,39.03
2019-04-07T02:12:50.998Z,39.27
2019-04-07T02:15:31.877Z,40.30
2019-04-07T02:18:03.538Z,39.87
2019-04-07T02:21:03.215Z,40.87
2019-04-07T02:23:44.682Z,39.40
2019-04-07T02:26:25.235Z,37.90
2019-04-07T02:29:04.839Z,41.47
2019-04-07T02:31:34.351Z,41.93
2019-04-07T02:34:03.636Z,39.00
2019-04-07T02:36:50.225Z,39.63
2019-04-07T02:39:22.565Z,39.87
2019-04-07T02:41:57.154Z,39.87
2019-04-07T02:44:32.024Z,38.07
2019-04-07T02:47:00.954Z,37.63
2019-04-07T02:49:30.241Z,37.90
2019-04-07T02:52:02.492Z,38.20
2019-04-07T02:54:31.187Z,39.00
2019-04-07T02:57:04.427Z,42.07
2019-04-07T02:59:45.051Z,42.13
2019-04-07T03:02:31.760Z,41.70
2019-04-07T03:05:17.048Z,41.13
2019-04-07T03:08:02.161Z,38.23
2019-04-07T03:10:40.448Z,40.77
2019-04-07T03:13:18.096Z,38.90
2019-04-07T03:15:55.406Z,39.00
2019-04-07T03:18:35.953Z,36.43
2019-04-07T03:21:07.731Z,40.10
2019-04-07T03:23:53.386Z,39.03
2019-04-07T03:26:38.993Z,39.17
2019-04-07T03:29:10.349Z,39.60
2019-04-07T03:31:56.857Z,39.83
2019-04-07T03:34:29.044Z,38.93
2019-04-07T03:37:26.973Z,39.23
2019-04-07T03:39:47.985Z,37.60
2019-04-07T03:42:16.493Z,38.97
2019-04-07T03:44:47.625Z,38.03
2019-04-07T03:47:22.304Z,39.17
2019-04-07T03:50:07.438Z,38.07
2019-04-07T03:52:45.146Z,40.20
2019-04-07T03:55:17.692Z,38.53
2019-04-07T03:57:53.439Z,40.03
2019-04-07T04:01:11.010Z,37.43
2019-04-07T04:03:40.521Z,39.03
2019-04-07T04:06:26.019Z,41.87
2019-04-07T04:09:13.900Z,39.50
2019-04-07T04:11:46.976Z,40.17
2019-04-07T04:14:16.464Z,42.27
2019-04-07T04:16:45.789Z,38.23
2019-04-07T04:19:12.999Z,40.27
2019-04-07T04:21:40.413Z,37.53
2019-04-07T04:24:08.323Z,40.30
2019-04-07T04:26:35.897Z,39.10
2019-04-07T04:29:04.291Z,39.47
2019-04-07T04:31:30.982Z,38.30
2019-04-07T04:33:57.977Z,39.63
2019-04-07T04:36:25.328Z,40.60
2019-04-07T04:38:54.038Z,40.20
2019-04-07T04:41:23.167Z,40.07
2019-04-07T04:43:49.945Z,39.33
2019-04-07T04:46:17.038Z,41.67
2019-04-07T04:48:44.083Z,41.10
2019-04-07T04:51:13.101Z,38.83
2019-04-07T04:53:39.838Z,37.77
2019-04-07T04:56:06.493Z,36.17
2019-04-07T04:58:33.283Z,37.30
2019-04-07T05:00:59.824Z,36.50
2019-04-07T05:03:27.284Z,36.23
2019-04-07T05:05:54.568Z,35.47
2019-04-07T05:08:21.178Z,36.70
2019-04-07T05:10:48.270Z,37.50
2019-04-07T05:13:14.923Z,37.93
2019-04-07T05:15:41.624Z,37.33
2019-04-07T05:18:09.837Z,39.27
2019-04-07T05:20:36.375Z,39.67
2019-04-07T05:23:02.992Z,41.00
2019-04-07T05:25:29.662Z,39.13
2019-04-07T05:27:57.006Z,39.80
2019-04-07T05:30:23.759Z,38.30
2019-04-07T05:32:50.632Z,39.40
2019-04-07T05:35:17.528Z,41.77
2019-04-07T05:37:44.716Z,38.30
2019-04-07T05:40:12.384Z,38.40
2019-04-07T05:42:39.065Z,38.87
2019-04-07T05:45:06.551Z,38.43
2019-04-07T05:47:33.162Z,38.80
2019-04-07T05:50:03.305Z,39.93
2019-04-07T05:52:29.367Z,40.10
2019-04-07T05:54:57.851Z,39.67
2019-04-07T05:57:26.187Z,39.90
2019-04-07T05:59:53.729Z,36.83
2019-04-07T06:02:21.012Z,37.80
2019-04-07T06:04:48.447Z,38.57
2019-04-07T06:07:15.921Z,38.00
2019-04-07T06:09:42.639Z,39.20
2019-04-07T06:12:09.873Z,37.70
2019-04-07T06:14:37.950Z,39.37
2019-04-07T06:17:06.491Z,37.33
2019-04-07T06:19:37.503Z,37.40
2019-04-07T06:22:02.362Z,36.93
2019-04-07T06:24:32.160Z,37.73
2019-04-07T06:26:57.570Z,35.97
2019-04-07T06:29:26.296Z,35.27
2019-04-07T06:31:52.802Z,35.27
2019-04-07T06:34:20.276Z,37.07
2019-04-07T06:36:51.658Z,32.07
2019-04-07T06:39:17.185Z,30.90
2019-04-07T06:41:44.367Z,31.13
2019-04-07T06:44:13.889Z,29.40
2019-04-07T06:46:44.724Z,31.70
2019-04-07T06:49:27.814Z,29.90
2019-04-07T06:52:04.794Z,27.00
2019-04-07T06:54:39.849Z,29.67
2019-04-07T06:57:25.310Z,28.67
2019-04-07T06:59:54.702Z,30.13
2019-04-07T07:02:43.722Z,29.07
2019-04-07T07:05:21.335Z,32.67
2019-04-07T07:07:56.351Z,30.37
2019-04-07T07:10:28.696Z,30.23
2019-04-07T07:13:09.451Z,30.97
2019-04-07T07:15:36.421Z,29.73
2019-04-07T07:18:24.257Z,29.23
2019-04-07T07:20:55.755Z,27.83
2019-04-07T07:23:25.294Z,26.77
2019-04-07T07:25:51.987Z,26.83
2019-04-07T07:28:18.549Z,26.83
2019-04-07T07:30:45.438Z,28.23
2019-04-07T07:33:13.709Z,26.63
2019-04-07T07:35:40.935Z,31.80
2019-04-07T07:38:09.220Z,27.87
2019-04-07T07:40:37.568Z,25.50
2019-04-07T07:43:04.426Z,24.77
2019-04-07T07:45:31.725Z,28.77
2019-04-07T07:47:58.498Z,24.60
2019-04-07T07:50:25.423Z,22.47
2019-04-07T07:52:53.757Z,23.00
2019-04-07T07:55:20.846Z,29.60
2019-04-07T07:57:48.148Z,29.50
2019-04-07T08:00:15.683Z,27.73
2019-04-07T08:02:42.874Z,28.63
2019-04-07T08:05:10.337Z,31.50
2019-04-07T08:07:36.895Z,30.47
2019-04-07T08:10:05.388Z,32.30
2019-04-07T08:12:34.287Z,26.30
2019-04-07T08:15:00.585Z,22.57
2019-04-07T08:17:27.826Z,21.77
2019-04-07T08:19:54.578Z,20.10
2019-04-07T08:22:29.973Z,20.80
2019-04-07T08:24:51.913Z,21.20
2019-04-07T08:27:18.143Z,20.17
2019-04-07T08:29:51.068Z,19.73
2019-04-07T08:32:17.679Z,20.03
2019-04-07T08:34:44.860Z,18.40
2019-04-07T08:37:14.358Z,19.87
2019-04-07T08:39:40.791Z,19.83
2019-04-07T08:42:10.655Z,19.80
2019-04-07T08:44:36.659Z,19.30
2019-04-07T08:47:03.308Z,19.23
2019-04-07T08:49:32.699Z,20.53
2019-04-07T08:51:59.049Z,18.90
2019-04-07T08:54:28.550Z,19.33
2019-04-07T08:56:56.784Z,18.93
2019-04-07T08:59:23.766Z,18.93
2019-04-07T09:01:53.502Z,18.87
2019-04-07T09:04:18.921Z,18.93
2019-04-07T09:06:45.603Z,20.73
2019-04-07T09:09:12.425Z,20.40
2019-04-07T09:11:41.249Z,18.77
2019-04-07T09:14:08.767Z,18.70
2019-04-07T09:16:37.900Z,18.30
2019-04-07T09:19:25.157Z,18.40
2019-04-07T09:22:06.274Z,17.10
2019-04-07T09:24:38.219Z,18.73
2019-04-07T09:27:17.132Z,17.73
2019-04-07T09:29:49.234Z,17.93
2019-04-07T09:32:17.816Z,18.90
2019-04-07T09:34:50.439Z,17.37
2019-04-07T09:37:26.129Z,18.97
2019-04-07T09:40:06.919Z,18.60
2019-04-07T09:42:41.288Z,17.50
2019-04-07T09:45:12.424Z,17.80
2019-04-07T09:47:41.371Z,17.90
2019-04-07T09:50:28.795Z,19.20
2019-04-07T09:52:58.089Z,18.30
2019-04-07T09:55:29.964Z,17.80
2019-04-07T09:58:18.185Z,18.23
2019-04-07T10:01:02.228Z,16.37
2019-04-07T10:03:38.141Z,17.80
2019-04-07T10:06:10.682Z,18.63
2019-04-07T10:08:42.010Z,18.57
2019-04-07T10:11:11.827Z,19.03
2019-04-07T10:13:49.687Z,17.80
2019-04-07T10:16:24.275Z,19.03
2019-04-07T10:19:04.987Z,18.90
2019-04-07T10:21:51.352Z,18.43
2019-04-07T10:24:25.917Z,16.40
2019-04-07T10:26:55.201Z,18.60
2019-04-07T10:29:39.773Z,17.90
2019-04-07T10:32:08.918Z,18.53
2019-04-07T10:34:54.383Z,20.30
2019-04-07T10:37:26.561Z,18.20
2019-04-07T10:40:16.743Z,17.17
2019-04-07T10:42:41.657Z,18.47
2019-04-07T10:45:12.309Z,18.00
2019-04-07T10:47:57.853Z,17.73
2019-04-07T10:50:26.839Z,20.43
2019-04-07T10:52:58.821Z,18.43
2019-04-07T10:55:33.243Z,18.67
2019-04-07T10:58:19.831Z,20.10
2019-04-07T11:00:50.936Z,17.37
2019-04-07T11:03:27.279Z,18.80
2019-04-07T11:06:13.821Z,19.10
2019-04-07T11:08:55.299Z,18.70
2019-04-07T11:11:41.224Z,19.27
2019-04-07T11:14:13.431Z,16.60
2019-04-07T11:16:56.120Z,18.63
2019-04-07T11:19:39.916Z,18.13
2019-04-07T11:22:25.405Z,18.73
2019-04-07T11:25:10.824Z,19.03
2019-04-07T11:27:55.001Z,18.63
2019-04-07T11:30:27.202Z,17.40
2019-04-07T11:32:57.633Z,17.53
2019-04-07T11:35:30.762Z,19.50
2019-04-07T11:38:16.819Z,17.27
2019-04-07T11:41:01.498Z,18.57
2019-04-07T11:43:30.474Z,17.53
2019-04-07T11:46:05.720Z,18.70
2019-04-07T11:48:40.467Z,18.57
2019-04-07T11:51:09.601Z,19.87
2019-04-07T11:53:42.530Z,19.73
2019-04-07T11:56:12.079Z,18.40
2019-04-07T11:58:49.804Z,17.83
2019-04-07T12:01:28.120Z,18.13
2019-04-07T12:04:04.669Z,19.53
2019-04-07T12:06:33.175Z,18.70
2019-04-07T12:09:10.862Z,17.47
2019-04-07T12:11:39.754Z,17.93
2019-04-07T12:14:18.026Z,18.70
2019-04-07T12:17:08.706Z,18.43
2019-04-07T12:19:36.659Z,17.63
2019-04-07T12:22:14.311Z,18.50
2019-04-07T12:24:49.119Z,18.40
2019-04-07T12:27:21.679Z,17.80
2019-04-07T12:29:56.948Z,18.87
2019-04-07T12:32:26.029Z,18.50
2019-04-07T12:35:04.242Z,18.65
2019-04-07T12:37:39.878Z,18.27
2019-04-07T12:40:10.937Z,18.30
2019-04-07T12:42:52.352Z,17.90
2019-04-07T12:45:20.868Z,18.20
2019-04-07T12:47:49.345Z,16.73
2019-04-07T12:50:33.815Z,18.63
2019-04-07T12:53:06.866Z,18.57
2019-04-07T12:55:36.153Z,16.60
2019-04-07T12:58:10.805Z,17.80
2019-04-07T13:00:55.735Z,18.37
2019-04-07T13:03:25.569Z,18.57
2019-04-07T13:05:54.179Z,17.63
2019-04-07T13:08:34.921Z,17.63
2019-04-07T13:11:11.230Z,17.70
2019-04-07T13:14:01.657Z,18.20
2019-04-07T13:16:27.849Z,19.33
2019-04-07T13:19:10.205Z,17.80
2019-04-07T13:21:56.529Z,19.40
2019-04-07T13:24:31.182Z,18.00
2019-04-07T13:26:57.339Z,17.00
2019-04-07T13:29:40.932Z,18.53
2019-04-07T13:32:12.185Z,17.63
2019-04-07T13:34:49.969Z,17.47
2019-04-07T13:37:18.832Z,16.40
2019-04-07T13:39:57.729Z,17.83
2019-04-07T13:42:35.733Z,17.67
2019-04-07T13:45:28.022Z,17.80
2019-04-07T13:48:07.724Z,18.00
2019-04-07T13:50:38.229Z,18.87
2019-04-07T13:53:08.794Z,18.30
2019-04-07T13:55:55.743Z,16.77
2019-04-07T13:58:35.769Z,17.10
2019-04-07T14:01:22.822Z,16.50
2019-04-07T14:03:58.971Z,17.73
2019-04-07T14:06:31.330Z,17.67
2019-04-07T14:09:15.846Z,17.70
2019-04-07T14:11:58.194Z,18.13
2019-04-07T14:14:18.230Z,16.43
2019-04-07T14:16:49.725Z,15.67
2019-04-07T14:19:33.245Z,15.47
2019-04-07T14:22:02.168Z,14.83
2019-04-07T14:24:33.925Z,15.97
2019-04-07T14:27:09.712Z,16.70
2019-04-07T14:29:39.460Z,16.03
2019-04-07T14:32:18.455Z,15.63
2019-04-07T14:35:05.376Z,15.90
2019-04-07T14:37:52.730Z,15.57
2019-04-07T14:40:36.679Z,16.50
2019-04-07T14:43:22.093Z,16.10
2019-04-07T14:45:56.864Z,15.80
2019-04-07T14:48:42.634Z,14.70
2019-04-07T14:51:18.489Z,15.87
2019-04-07T14:53:51.309Z,14.53
2019-04-07T14:56:37.888Z,16.07
2019-04-07T14:59:09.249Z,16.20
2019-04-07T15:01:58.166Z,16.00
2019-04-07T15:04:32.349Z,16.07
2019-04-07T15:07:09.205Z,15.17
2019-04-07T15:09:41.372Z,14.00
2019-04-07T15:12:28.556Z,15.10
2019-04-07T15:14:55.699Z,16.57
2019-04-07T15:17:23.102Z,15.60
2019-04-07T15:19:50.468Z,16.93
2019-04-07T15:22:18.492Z,17.10
2019-04-07T15:24:45.342Z,16.90
2019-04-07T15:27:12.385Z,16.20
2019-04-07T15:29:43.559Z,16.17
2019-04-07T15:32:08.326Z,16.30
2019-04-07T15:34:35.018Z,16.93
2019-04-07T15:37:02.294Z,16.40
2019-04-07T15:39:30.319Z,15.47
2019-04-07T15:41:57.759Z,17.10
2019-04-07T15:44:24.855Z,16.10
2019-04-07T15:46:53.336Z,18.23
2019-04-07T15:49:20.533Z,19.20
2019-04-07T15:51:47.628Z,20.37
2019-04-07T15:54:14.709Z,18.53
2019-04-07T15:56:42.385Z,20.90
2019-04-07T15:59:09.847Z,19.40
2019-04-07T16:01:38.630Z,19.17
2019-04-07T16:04:06.124Z,18.60
2019-04-07T16:06:36.104Z,19.97
2019-04-07T16:09:02.172Z,21.63
2019-04-07T16:11:30.481Z,22.07
2019-04-07T16:13:57.099Z,23.20
2019-04-07T16:16:26.850Z,25.00
2019-04-07T16:18:52.795Z,24.90
2019-04-07T16:21:19.628Z,23.63
2019-04-07T16:23:50.353Z,25.27
2019-04-07T16:26:15.488Z,23.00
2019-04-07T16:28:45.417Z,21.50
2019-04-07T16:31:10.743Z,22.37
2019-04-07T16:33:37.366Z,22.77
2019-04-07T16:36:04.422Z,21.90
2019-04-07T16:38:31.786Z,21.53
2019-04-07T16:40:58.683Z,20.17
2019-04-07T16:43:26.160Z,19.20
2019-04-07T16:45:54.720Z,19.00
2019-04-07T16:48:21.563Z,19.03
2019-04-07T16:50:51.855Z,20.13
2019-04-07T16:53:16.675Z,18.50
2019-04-07T16:55:47.599Z,18.47
2019-04-07T16:58:12.123Z,18.53
2019-04-07T17:00:39.748Z,19.20
2019-04-07T17:03:07.658Z,20.10
2019-04-07T17:05:36.200Z,19.97
2019-04-07T17:08:03.662Z,19.33
2019-04-07T17:10:33.116Z,19.63
2019-04-07T17:13:00.840Z,19.73
2019-04-07T17:15:27.398Z,18.20
2019-04-07T17:17:54.640Z,19.47
2019-04-07T17:20:22.133Z,21.90
2019-04-07T17:22:49.448Z,21.17
2019-04-07T17:25:16.269Z,22.70
2019-04-07T17:27:45.427Z,23.40
2019-04-07T17:30:15.309Z,22.87
2019-04-07T17:32:42.398Z,22.57
2019-04-07T17:35:12.456Z,21.10
2019-04-07T17:37:39.464Z,21.53
2019-04-07T17:40:13.165Z,22.63
2019-04-07T17:42:40.764Z,23.07
2019-04-07T17:45:09.699Z,21.13
2019-04-07T17:47:46.992Z,23.17
2019-04-07T17:50:16.781Z,22.70
2019-04-07T17:52:48.291Z,21.50
2019-04-07T17:55:33.122Z,21.53
2019-04-07T17:58:17.248Z,21.33
2019-04-07T18:00:58.563Z,21.73
2019-04-07T18:03:46.484Z,22.90
2019-04-07T18:06:21.780Z,22.50
2019-04-07T18:09:10.765Z,21.00
2019-04-07T18:11:46.955Z,21.57
2019-04-07T18:14:22.291Z,21.07
2019-04-07T18:16:58.062Z,23.97
2019-04-07T18:19:43.799Z,22.03
2019-04-07T18:22:12.652Z,22.43
2019-04-07T18:24:59.623Z,21.17
2019-04-07T18:27:36.381Z,21.83
2019-04-07T18:30:16.648Z,21.93
2019-04-07T18:32:51.513Z,21.57
2019-04-07T18:35:37.695Z,19.87
2019-04-07T18:38:11.060Z,20.33
2019-04-07T18:40:39.516Z,19.53
2019-04-07T18:43:14.774Z,20.40
2019-04-07T18:45:49.981Z,18.83
2019-04-07T18:48:18.426Z,20.00
2019-04-07T18:50:50.039Z,19.80
2019-04-07T18:53:27.566Z,18.57
2019-04-07T18:55:55.746Z,19.03
2019-04-07T18:58:24.517Z,18.73
2019-04-07T19:01:11.671Z,18.43
2019-04-07T19:03:53.533Z,19.50
2019-04-07T19:06:41.526Z,19.87
2019-04-07T19:09:12.285Z,18.57
2019-04-07T19:12:02.741Z,19.50
2019-04-07T19:14:45.991Z,20.10
2019-04-07T19:17:10.675Z,19.27
2019-04-07T19:19:57.478Z,20.57
2019-04-07T19:22:26.652Z,19.80
2019-04-07T19:25:14.395Z,18.93
2019-04-07T19:27:50.629Z,19.57
2019-04-07T19:30:26.908Z,18.43
2019-04-07T19:33:01.287Z,19.60
2019-04-07T19:35:46.464Z,19.67
2019-04-07T19:38:33.690Z,19.80
2019-04-07T19:41:20.433Z,21.33
2019-04-07T19:43:48.887Z,20.53
2019-04-07T19:46:36.460Z,19.50
2019-04-07T19:49:23.333Z,20.73
2019-04-07T19:52:05.411Z,20.37
2019-04-07T19:54:33.420Z,21.23
2019-04-07T19:57:11.508Z,21.83
2019-04-07T19:59:46.511Z,20.47
2019-04-07T20:02:30.508Z,20.93
2019-04-07T20:05:17.384Z,20.77
2019-04-07T20:07:52.616Z,19.60
2019-04-07T20:10:25.711Z,20.53
2019-04-07T20:12:54.497Z,20.50
2019-04-07T20:15:23.993Z,20.10
2019-04-07T20:17:55.031Z,21.57
2019-04-07T20:20:33.625Z,20.43
2019-04-07T20:23:05.129Z,23.50
2019-04-07T20:25:41.066Z,24.53
2019-04-07T20:28:10.889Z,22.80
2019-04-07T20:30:47.382Z,23.10
2019-04-07T20:33:29.753Z,21.57
2019-04-07T20:36:07.543Z,22.47
2019-04-07T20:38:45.086Z,23.17
2019-04-07T20:41:15.773Z,23.77
2019-04-07T20:43:53.819Z,23.90
2019-04-07T20:46:29.562Z,22.23
2019-04-07T20:48:58.171Z,22.60
2019-04-07T20:51:27.553Z,21.33
2019-04-07T20:54:08.240Z,22.90
2019-04-07T20:56:41.961Z,21.27
2019-04-07T20:59:31.426Z,22.30
2019-04-07T21:02:03.268Z,22.67
2019-04-07T21:04:31.181Z,22.17
2019-04-07T21:07:08.602Z,22.50
2019-04-07T21:09:53.912Z,22.20
2019-04-07T21:12:23.165Z,22.60
2019-04-07T21:15:18.295Z,21.87
2019-04-07T21:17:41.183Z,21.87
2019-04-07T21:20:11.790Z,23.17
2019-04-07T21:22:43.305Z,23.73
2019-04-07T21:25:25.341Z,22.93
2019-04-07T21:28:07.719Z,22.10
2019-04-07T21:30:43.819Z,22.87
2019-04-07T21:33:13.196Z,23.93
2019-04-07T21:35:44.806Z,24.30
2019-04-07T21:38:31.233Z,23.80
2019-04-07T21:40:59.901Z,22.67
2019-04-07T21:43:40.390Z,24.20
2019-04-07T21:46:11.950Z,23.50
2019-04-07T21:48:48.010Z,23.60
2019-04-07T21:51:20.948Z,23.50
2019-04-07T21:53:49.532Z,24.80
2019-04-07T21:56:20.820Z,26.87
2019-04-07T21:58:54.953Z,23.47
2019-04-07T22:01:23.704Z,23.67
2019-04-07T22:04:08.318Z,22.37
2019-04-07T22:06:39.254Z,23.37
2019-04-07T22:09:08.928Z,21.37
2019-04-07T22:11:37.151Z,24.43
2019-04-07T22:14:07.269Z,23.07
2019-04-07T22:16:34.148Z,22.50
2019-04-07T22:19:01.766Z,21.93
2019-04-07T22:21:29.392Z,24.33
2019-04-07T22:23:56.618Z,22.00
2019-04-07T22:26:23.405Z,23.20
2019-04-07T22:28:50.111Z,23.83
2019-04-07T22:31:18.662Z,23.77
2019-04-07T22:33:45.221Z,23.57
2019-04-07T22:36:14.144Z,23.60
2019-04-07T22:38:40.992Z,22.87
2019-04-07T22:41:09.885Z,23.77
2019-04-07T22:43:36.516Z,23.30
2019-04-07T22:46:08.507Z,22.10
2019-04-07T22:48:31.487Z,24.50
2019-04-07T22:50:58.784Z,25.00
2019-04-07T22:53:28.487Z,24.47
2019-04-07T22:55:54.795Z,23.60
2019-04-07T22:58:22.227Z,25.53
2019-04-07T23:00:50.488Z,27.23
2019-04-07T23:03:17.604Z,27.47
2019-04-07T23:05:44.359Z,28.37
2019-04-07T23:08:11.134Z,26.00
2019-04-07T23:10:37.912Z,26.30
2019-04-07T23:13:04.441Z,25.03
2019-04-07T23:15:40.110Z,24.67
2019-04-07T23:17:59.860Z,25.37
2019-04-07T23:20:27.001Z,25.20
2019-04-07T23:22:55.470Z,24.30
2019-04-07T23:25:23.042Z,24.27
2019-04-07T23:27:50.018Z,23.63
2019-04-07T23:30:21.427Z,24.00
2019-04-07T23:32:48.312Z,23.77
2019-04-07T23:35:14.984Z,23.33
2019-04-07T23:37:43.223Z,22.00
2019-04-07T23:40:10.753Z,24.40
2019-04-07T23:42:38.171Z,22.60
2019-04-07T23:45:05.717Z,24.57
2019-04-07T23:47:32.386Z,22.20
2019-04-07T23:49:59.005Z,24.10
2019-04-07T23:52:25.619Z,22.97
2019-04-07T23:54:54.542Z,23.53
2019-04-07T23:57:21.893Z,24.23
2019-04-07T23:59:48.782Z,24.57
